Geyser, Montana
Current Conditions -  °F | °C
As of 8:56 PM on Sunday 19 Oct 2014 (Local Time) from KGFA Reporting Station
Clear Clear  
Wind Chill: 51°   Ceiling: Unl
Heat Index: 51°   Visibility: 10mi
Dew Point: 34°   Wind: 2mph
Humidity: 51%   Direction: 90°E
Pressure: 29.92"   Gusts: NA
Location:  47.25°N, 110.5°W
Report Text: KGFA 200256Z AUTO 09002KT 10SM CLR 11/01 A2992 RMK AO2 SLP142 T01070009 53003
Loading
Personal Weather Stations






























Interactive Weather Map
Tropical Storm Tracking
New forecast layout! Learn more

10-Day Weather Forecast

Advertisements
Track Severe Weather on mobile